Time;durP1;ratioP1;P1;durP2;ratioP2;P2;SDS_P1;SDS_P2;PMS_P1;PMS_P2;Temp;Humidity;BMP_temperature;BMP_pressure;BME280_temperature;BME280_humidity;BME280_pressure;Samples;Min_cycle;Max_cycle;Signal;HPM_P1;HPM_P2
2021/04/03 00:00:33;;;;;;;2.45;1.27;;;;;;;26.96;25.73;97003.75;5059450;28;20052;-32
2021/04/03 00:02:58;;;;;;;3.03;1.50;;;;;;;26.97;25.73;97004.63;5068918;28;20107;-27
2021/04/03 00:05:27;;;;;;;2.80;1.42;;;;;;;26.96;25.81;97003.75;5066975;28;20024;-28
2021/04/03 00:07:52;;;;;;;1.58;1.10;;;;;;;26.96;25.78;97010.81;5059077;28;21000;-26
2021/04/03 00:10:21;;;;;;;2.70;1.40;;;;;;;26.97;25.79;97007.25;5062437;28;20040;-27
2021/04/03 00:12:46;;;;;;;3.28;1.30;;;;;;;26.96;25.76;97003.75;5065991;28;20106;-29
2021/04/03 00:15:12;;;;;;;2.00;1.27;;;;;;;26.96;25.82;97016.91;5072498;27;20047;-23
2021/04/03 00:17:38;;;;;;;3.40;1.40;;;;;;;26.96;25.73;97018.72;5066495;28;20507;-28
2021/04/03 00:20:06;;;;;;;1.58;1.17;;;;;;;26.95;25.71;97016.97;5080090;28;20032;-28
2021/04/03 00:22:31;;;;;;;1.75;1.40;;;;;;;26.95;25.72;97011.72;5070058;28;20043;-27
2021/04/03 00:24:57;;;;;;;1.98;1.25;;;;;;;26.95;25.77;97016.97;5074180;28;20016;-26
2021/04/03 00:27:22;;;;;;;2.95;1.10;;;;;;;26.94;25.69;97015.25;5072837;28;20020;-29
2021/04/03 00:29:47;;;;;;;1.17;1.08;;;;;;;26.94;25.74;97016.16;5070539;28;20472;-27
2021/04/03 00:32:13;;;;;;;3.00;1.20;;;;;;;26.94;25.65;97015.25;5074430;28;20036;-26
2021/04/03 00:34:38;;;;;;;1.48;1.23;;;;;;;26.93;25.74;97019.66;5071336;28;20020;-27
2021/04/03 00:37:04;;;;;;;1.80;1.52;;;;;;;26.94;25.69;97025.78;5070370;28;20024;-29
2021/04/03 00:39:29;;;;;;;3.75;1.27;;;;;;;26.93;25.78;97014.41;5070360;28;20411;-25
2021/04/03 00:41:55;;;;;;;3.22;1.40;;;;;;;26.92;25.71;97010.09;5069003;28;20361;-30
2021/04/03 00:44:20;;;;;;;1.70;1.30;;;;;;;26.92;25.64;97007.44;5071301;28;20082;-28
2021/04/03 00:46:45;;;;;;;2.40;1.27;;;;;;;26.93;25.78;97018.84;5066416;28;20564;-28
2021/04/03 00:49:11;;;;;;;2.22;1.20;;;;;;;26.93;25.72;97013.56;5070045;28;20038;-25
2021/04/03 00:51:36;;;;;;;2.05;1.23;;;;;;;26.92;25.81;97014.50;5067356;28;20032;-29
2021/04/03 00:54:04;;;;;;;2.35;1.30;;;;;;;26.90;25.89;97014.59;5072131;28;20334;-27
2021/04/03 00:56:29;;;;;;;2.13;1.27;;;;;;;26.91;25.76;97020.69;5067318;28;20028;-25
2021/04/03 00:58:55;;;;;;;2.13;1.27;;;;;;;26.90;25.71;97024.25;5067970;28;20035;-26
2021/04/03 01:01:20;;;;;;;2.20;1.25;;;;;;;26.91;25.78;97021.53;5065176;28;20043;-27
2021/04/03 01:03:46;;;;;;;2.50;1.50;;;;;;;26.91;25.71;97020.69;5071601;28;20020;-28
2021/04/03 01:06:11;;;;;;;2.63;1.15;;;;;;;26.92;25.84;97017.16;5069010;28;20572;-30
2021/04/03 01:08:36;;;;;;;2.13;1.25;;;;;;;26.91;25.83;97020.69;5071985;28;20017;-28
2021/04/03 01:11:02;;;;;;;2.70;1.35;;;;;;;26.91;25.73;97016.28;5070713;28;20148;-27
2021/04/03 01:13:49;;;;;;;2.53;1.33;;;;;;;26.90;25.74;97008.47;5055358;28;20040;-26
2021/04/03 01:16:36;;;;;;;7.40;1.30;;;;;;;26.91;25.68;97010.16;5071651;27;20458;-25
2021/04/03 01:19:39;;;;;;;2.83;1.25;;;;;;;26.90;25.77;97019.00;5046657;28;20035;-30
2021/04/03 01:22:30;;;;;;;1.63;1.23;;;;;;;26.88;25.83;97011.19;5072976;28;20415;-28
2021/04/03 01:25:07;;;;;;;1.88;1.20;;;;;;;26.87;25.76;97010.34;5068292;28;20024;-24
2021/04/03 01:27:32;;;;;;;1.40;1.05;;;;;;;26.87;25.73;97010.34;5067603;28;20594;-27
2021/04/03 01:30:05;;;;;;;2.42;1.48;;;;;;;26.87;25.78;96998.97;5067692;28;20032;-27
2021/04/03 01:33:00;;;;;;;1.88;1.35;;;;;;;26.85;25.82;96996.41;5063886;28;20048;-27
2021/04/03 01:35:35;;;;;;;1.50;1.30;;;;;;;26.86;25.68;96992.84;5072314;28;20031;-28
2021/04/03 01:38:09;;;;;;;2.25;1.30;;;;;;;26.85;25.89;96996.41;5070162;28;20031;-29
2021/04/03 01:40:34;;;;;;;2.22;1.10;;;;;;;26.86;25.89;96995.47;5070315;28;20024;-28
2021/04/03 01:43:05;;;;;;;1.83;1.10;;;;;;;26.86;25.76;96997.28;5069300;28;20512;-24
2021/04/03 01:45:31;;;;;;;1.45;1.00;;;;;;;26.85;25.80;96988.53;5066610;28;20029;-26
2021/04/03 01:47:56;;;;;;;1.88;1.20;;;;;;;26.86;25.64;97000.75;5069848;28;20816;-30
2021/04/03 01:50:22;;;;;;;3.15;1.30;;;;;;;26.85;25.81;96995.59;5070879;28;20429;-26
2021/04/03 01:52:47;;;;;;;2.00;1.10;;;;;;;26.85;25.87;96995.59;5052499;28;20156;-27
2021/04/03 01:55:13;;;;;;;2.35;1.23;;;;;;;26.84;25.75;96994.72;5072638;28;20032;-28
2021/04/03 01:57:38;;;;;;;2.75;1.20;;;;;;;26.84;26.07;96992.09;5068639;28;20075;-26
2021/04/03 02:00:07;;;;;;;2.85;1.40;;;;;;;26.85;25.89;96983.28;5063150;28;20407;-28
2021/04/03 02:02:32;;;;;;;1.33;1.10;;;;;;;26.84;25.83;96984.22;5070166;28;20406;-27
2021/04/03 02:04:58;;;;;;;1.17;1.08;;;;;;;26.85;25.89;96985.91;5070045;28;20504;-29
2021/04/03 02:07:23;;;;;;;1.88;1.10;;;;;;;26.85;25.77;96980.66;5063501;28;20028;-31
2021/04/03 02:09:50;;;;;;;2.00;1.17;;;;;;;26.84;25.76;96973.69;5057510;28;20022;-28
2021/04/03 02:12:16;;;;;;;1.33;1.20;;;;;;;26.85;25.82;96977.19;5065158;28;20024;-27
2021/04/03 02:14:41;;;;;;;2.47;1.30;;;;;;;26.83;25.93;96974.63;5067166;28;20594;-27
2021/04/03 02:17:06;;;;;;;1.55;0.93;;;;;;;26.83;25.87;96974.63;5063609;28;20797;-28
2021/04/03 02:19:33;;;;;;;2.15;1.00;;;;;;;26.83;25.79;96969.38;5050473;28;20032;-29
2021/04/03 02:21:59;;;;;;;1.92;1.20;;;;;;;26.83;25.78;96972.00;5070694;28;20028;-32
2021/04/03 02:24:24;;;;;;;1.88;1.02;;;;;;;26.84;25.85;96968.44;5072001;28;20024;-28
2021/04/03 02:26:50;;;;;;;2.67;1.10;;;;;;;26.84;25.86;96968.44;5042652;28;20507;-26
2021/04/03 02:29:15;;;;;;;2.15;1.20;;;;;;;26.84;25.83;96970.22;5068271;28;20058;-27
2021/04/03 02:31:40;;;;;;;0.95;0.75;;;;;;;26.83;25.70;96974.63;5063779;28;20044;-29
2021/04/03 02:34:06;;;;;;;2.58;1.10;;;;;;;26.83;25.81;96972.00;5067769;28;20030;-29
2021/04/03 02:36:31;;;;;;;2.90;1.00;;;;;;;26.82;25.77;96975.56;5064911;28;20028;-24
2021/04/03 02:38:57;;;;;;;2.60;1.10;;;;;;;26.82;25.83;96970.31;5071613;28;20032;-29
2021/04/03 02:41:33;;;;;;;1.60;0.98;;;;;;;26.82;25.83;96975.56;5068600;28;20028;-25
2021/04/03 02:44:12;;;;;;;1.90;1.00;;;;;;;26.82;25.83;96977.34;5064237;28;20032;-27
2021/04/03 02:47:18;;;;;;;1.23;0.90;;;;;;;26.82;25.89;96986.09;5061568;28;20035;-29
2021/04/03 02:50:00;;;;;;;1.98;1.33;;;;;;;26.83;25.83;96973.78;5062174;28;20106;-29
2021/04/03 02:52:26;;;;;;;1.13;0.90;;;;;;;26.81;25.80;96973.84;5051003;28;20429;-30
2021/04/03 02:54:51;;;;;;;2.03;0.90;;;;;;;26.80;25.87;96974.78;5070063;28;20068;-30
2021/04/03 02:57:17;;;;;;;1.10;0.98;;;;;;;26.80;26.03;96971.31;5067276;28;20028;-29
2021/04/03 02:59:46;;;;;;;1.48;0.93;;;;;;;26.80;26.01;96987.94;5070505;28;20661;-28
2021/04/03 03:02:15;;;;;;;1.02;0.90;;;;;;;26.79;25.92;96988.88;5049353;28;20043;-32
2021/04/03 03:04:40;;;;;;;1.25;0.90;;;;;;;26.79;25.84;96999.41;5070296;28;20517;-27
2021/04/03 03:07:06;;;;;;;0.70;0.70;;;;;;;26.80;25.84;96993.19;5062728;28;20028;-27
2021/04/03 03:09:31;;;;;;;1.40;0.70;;;;;;;26.79;25.84;96996.75;5068413;28;20036;-29
2021/04/03 03:11:58;;;;;;;1.17;0.90;;;;;;;26.80;25.65;96987.94;5058533;28;20430;-30
2021/04/03 03:14:24;;;;;;;1.23;0.90;;;;;;;26.79;25.94;96986.25;5040904;28;20031;-30
2021/04/03 03:16:50;;;;;;;1.92;1.02;;;;;;;26.79;25.90;96980.13;5062024;28;20043;-30
2021/04/03 03:19:15;;;;;;;3.00;1.02;;;;;;;26.79;25.89;96985.38;5061843;28;20039;-26
2021/04/03 03:21:41;;;;;;;1.35;0.90;;;;;;;26.79;25.84;96988.00;5054867;28;20028;-30
2021/04/03 03:24:10;;;;;;;1.48;0.80;;;;;;;26.80;25.87;96993.19;5068457;28;20027;-28
2021/04/03 03:26:36;;;;;;;1.17;0.90;;;;;;;26.79;25.91;96990.66;5067787;28;20035;-30
2021/04/03 03:29:06;;;;;;;3.53;1.00;;;;;;;26.77;25.95;96993.34;5063753;28;20560;-29
2021/04/03 03:31:32;;;;;;;1.48;0.80;;;;;;;26.77;25.84;96995.97;5068800;28;20040;-28
2021/04/03 03:33:58;;;;;;;1.00;0.90;;;;;;;26.77;25.96;96988.09;5058893;28;20468;-27
2021/04/03 03:36:24;;;;;;;1.33;0.88;;;;;;;26.77;25.92;96993.34;5065671;28;20047;-28
2021/04/03 03:38:50;;;;;;;1.30;0.90;;;;;;;26.76;25.81;96989.03;5068268;28;20036;-30
2021/04/03 03:41:16;;;;;;;1.52;0.95;;;;;;;26.78;25.83;96995.06;5049220;28;20404;-29
2021/04/03 03:43:41;;;;;;;1.23;0.93;;;;;;;26.74;25.92;96989.09;5060782;28;20032;-25
2021/04/03 03:46:06;;;;;;;1.15;0.90;;;;;;;26.77;26.02;96990.72;5058838;28;20044;-30
2021/04/03 03:48:32;;;;;;;2.10;0.95;;;;;;;26.76;25.96;96983.78;5063711;28;20028;-25
2021/04/03 03:50:58;;;;;;;1.10;0.82;;;;;;;26.76;25.92;96986.41;5068511;28;20036;-30
2021/04/03 03:53:23;;;;;;;1.63;0.85;;;;;;;26.76;25.89;96991.66;5064036;28;20081;-29
2021/04/03 03:55:49;;;;;;;2.80;0.80;;;;;;;26.72;25.86;96990.13;5064906;28;20032;-26
2021/04/03 03:58:14;;;;;;;1.08;0.80;;;;;;;26.76;25.86;96986.41;5067150;28;20181;-24
2021/04/03 04:00:40;;;;;;;1.70;1.02;;;;;;;26.74;26.02;96989.09;5067123;28;20047;-29
2021/04/03 04:03:05;;;;;;;0.95;0.85;;;;;;;26.75;25.88;96989.97;5068126;28;20035;-26
2021/04/03 04:05:31;;;;;;;2.22;1.15;;;;;;;26.74;25.98;96988.28;5084927;28;20553;-26
2021/04/03 04:07:56;;;;;;;0.82;0.80;;;;;;;26.74;26.09;96978.59;5068066;28;20020;-28
2021/04/03 04:10:24;;;;;;;1.30;0.98;;;;;;;26.74;26.02;96988.28;5064298;28;20032;-28
2021/04/03 04:12:49;;;;;;;3.35;1.00;;;;;;;26.73;25.89;96990.06;5065034;28;20047;-28
2021/04/03 04:15:16;;;;;;;0.80;0.80;;;;;;;26.73;25.91;96990.06;5069764;28;20028;-27
2021/04/03 04:17:41;;;;;;;1.25;0.85;;;;;;;26.73;25.91;96986.56;5050221;28;20021;-28
2021/04/03 04:20:07;;;;;;;1.63;0.93;;;;;;;26.73;25.99;96991.81;5050827;28;20070;-28
2021/04/03 04:22:32;;;;;;;1.65;0.98;;;;;;;26.73;26.04;96994.44;5055893;28;20047;-30
2021/04/03 04:24:58;;;;;;;1.10;0.73;;;;;;;26.72;26.05;96992.75;5044422;28;20025;-23
2021/04/03 04:27:23;;;;;;;1.40;1.00;;;;;;;26.72;25.86;97000.66;5047010;28;20036;-31
2021/04/03 04:29:49;;;;;;;1.92;0.65;;;;;;;26.72;25.46;97003.28;5045997;28;20031;-27
2021/04/03 04:32:17;;;;;;;1.33;0.95;;;;;;;26.71;25.92;97002.44;5064609;28;20070;-26
2021/04/03 04:34:42;;;;;;;1.13;0.85;;;;;;;26.72;26.01;97013.78;5063038;28;20024;-26
2021/04/03 04:37:07;;;;;;;1.17;0.80;;;;;;;26.71;25.95;97014.72;5065048;28;20398;-27
2021/04/03 04:39:33;;;;;;;1.95;0.75;;;;;;;26.70;25.90;97016.50;5066626;28;20063;-29
2021/04/03 04:41:58;;;;;;;2.45;0.80;;;;;;;26.71;25.89;97014.72;5063602;28;21085;-30
2021/04/03 04:44:24;;;;;;;1.02;0.90;;;;;;;26.70;25.97;97023.56;5060444;28;20029;-28
2021/04/03 04:46:49;;;;;;;3.25;0.77;;;;;;;26.69;26.04;97017.44;5063855;28;20032;-24
2021/04/03 04:49:14;;;;;;;1.73;0.80;;;;;;;26.69;25.85;97021.84;5069991;28;20733;-28
2021/04/03 04:51:40;;;;;;;7.15;1.38;;;;;;;26.68;25.73;97026.25;5063308;28;20039;-27
2021/04/03 04:54:05;;;;;;;5.63;1.50;;;;;;;26.67;25.63;97034.22;5066544;28;20027;-27
2021/04/03 04:56:31;;;;;;;1.88;1.20;;;;;;;26.65;25.78;97028.22;5066639;28;20086;-28
2021/04/03 04:58:56;;;;;;;2.08;1.00;;;;;;;26.65;25.78;97036.09;5064701;28;20094;-27
2021/04/03 05:01:21;;;;;;;2.75;1.20;;;;;;;26.65;25.78;97036.09;5070815;27;20765;-26
2021/04/03 05:03:47;;;;;;;3.15;0.90;;;;;;;26.65;25.82;97038.72;5073935;28;20027;-26
2021/04/03 05:06:12;;;;;;;2.13;1.00;;;;;;;26.65;25.98;97033.47;5067155;28;20024;-26
2021/04/03 05:08:38;;;;;;;4.47;0.93;;;;;;;26.65;26.00;97033.47;5069666;28;20711;-26
2021/04/03 05:11:03;;;;;;;3.33;1.10;;;;;;;26.65;25.91;97033.47;5065226;28;20035;-28
2021/04/03 05:13:29;;;;;;;2.72;0.90;;;;;;;26.64;25.87;97034.38;5068586;28;20028;-28
2021/04/03 05:15:55;;;;;;;4.30;1.10;;;;;;;26.65;25.82;97041.34;5071648;27;20040;-26
2021/04/03 05:18:20;;;;;;;1.73;0.80;;;;;;;26.64;25.91;97044.88;5061931;28;20028;-25
2021/04/03 05:20:45;;;;;;;3.22;0.88;;;;;;;26.65;25.98;97049.25;5067221;28;20579;-29
2021/04/03 05:23:11;;;;;;;2.20;0.70;;;;;;;26.64;26.00;97044.88;5065817;28;20315;-27
2021/04/03 05:25:36;;;;;;;2.80;1.10;;;;;;;26.64;25.89;97050.16;5072772;28;20055;-27
2021/04/03 05:28:02;;;;;;;0.98;0.70;;;;;;;26.64;26.03;97050.16;5071612;28;20023;-30
2021/04/03 05:30:27;;;;;;;2.13;0.88;;;;;;;26.64;25.93;97050.16;5069523;27;20438;-25
2021/04/03 05:32:52;;;;;;;2.85;0.80;;;;;;;26.64;25.89;97050.16;5067936;28;20512;-28
2021/04/03 05:35:18;;;;;;;1.77;1.00;;;;;;;26.63;25.87;97056.34;5068520;28;20055;-28
2021/04/03 05:37:45;;;;;;;2.90;0.77;;;;;;;26.63;25.84;97064.22;5067769;28;20504;-28
2021/04/03 05:40:11;;;;;;;1.55;0.98;;;;;;;26.62;25.93;97058.13;5070014;28;20030;-30
2021/04/03 05:42:36;;;;;;;2.60;0.80;;;;;;;26.63;25.95;97058.97;5067755;28;20163;-32
2021/04/03 05:45:03;;;;;;;2.22;0.90;;;;;;;26.63;25.96;97064.22;5068483;28;20103;-26
2021/04/03 05:47:32;;;;;;;1.88;1.00;;;;;;;26.61;25.94;97057.28;5068655;27;20052;-29
2021/04/03 05:49:57;;;;;;;2.85;1.00;;;;;;;26.61;25.98;97065.16;5066291;28;20032;-25
2021/04/03 05:52:22;;;;;;;1.67;0.85;;;;;;;26.61;26.23;97067.78;5067867;28;20082;-28
2021/04/03 05:54:48;;;;;;;5.43;1.17;;;;;;;26.60;26.02;97058.22;5068174;28;20029;-29
2021/04/03 05:57:13;;;;;;;1.00;0.70;;;;;;;26.61;26.07;97061.66;5050970;28;20039;-26
2021/04/03 05:59:38;;;;;;;1.45;1.00;;;;;;;26.60;26.05;97071.34;5063741;28;20442;-28
2021/04/03 06:02:04;;;;;;;0.57;0.55;;;;;;;26.60;26.10;97066.09;5068612;28;20044;-28
2021/04/03 06:04:30;;;;;;;2.38;0.82;;;;;;;26.59;26.04;97072.25;5067523;28;20024;-28
2021/04/03 06:06:55;;;;;;;1.25;0.80;;;;;;;26.60;26.08;97071.34;5052155;28;20020;-29
2021/04/03 06:09:21;;;;;;;1.10;0.80;;;;;;;26.60;26.10;97079.25;5047870;28;20032;-28
2021/04/03 06:11:47;;;;;;;2.85;0.73;;;;;;;26.59;26.16;97074.88;5066142;28;20055;-28
2021/04/03 06:14:13;;;;;;;3.95;1.10;;;;;;;26.60;25.93;97081.88;5065421;28;20027;-28
2021/04/03 06:16:42;;;;;;;1.42;0.77;;;;;;;26.55;26.06;97078.59;5066354;27;20682;-26
2021/04/03 06:19:15;;;;;;;2.35;0.88;;;;;;;26.58;26.04;97086.34;5064582;28;20027;-26
2021/04/03 06:21:47;;;;;;;2.00;0.90;;;;;;;26.59;26.07;97100.34;5064608;28;20028;-29
2021/04/03 06:24:17;;;;;;;1.63;0.82;;;;;;;26.57;26.08;97097.78;5070795;28;20088;-30
2021/04/03 06:26:59;;;;;;;3.90;0.90;;;;;;;26.57;26.06;97092.53;5067559;28;20033;-25
2021/04/03 06:29:34;;;;;;;2.13;1.00;;;;;;;26.57;26.13;97100.41;5069457;28;20020;-29
2021/04/03 06:32:00;;;;;;;2.28;1.00;;;;;;;26.57;25.94;97104.81;5062678;28;20058;-27
2021/04/03 06:34:35;;;;;;;1.08;0.80;;;;;;;26.56;26.02;97096.09;5064727;28;20070;-29
2021/04/03 06:37:00;;;;;;;4.03;1.30;;;;;;;26.56;26.17;97096.09;5069889;28;20554;-29
2021/04/03 06:39:26;;;;;;;5.93;1.50;;;;;;;26.56;25.96;97096.09;5068577;28;20115;-31
2021/04/03 06:41:52;;;;;;;10.88;1.38;;;;;;;26.55;25.92;97094.38;5063884;28;20129;-26
2021/04/03 06:44:17;;;;;;;2.45;1.23;;;;;;;26.55;25.96;97089.13;5065388;28;20393;-26
2021/04/03 06:46:44;;;;;;;5.03;1.40;;;;;;;26.55;25.76;97093.53;5063713;27;20071;-30
2021/04/03 06:49:10;;;;;;;2.28;1.08;;;;;;;26.55;25.98;97088.28;5062308;28;20024;-27
2021/04/03 06:51:36;;;;;;;2.20;0.93;;;;;;;26.54;25.83;97089.22;5056034;28;20032;-26
2021/04/03 06:54:02;;;;;;;3.00;1.02;;;;;;;26.53;25.94;97087.50;5067235;28;20556;-25
2021/04/03 06:56:34;;;;;;;1.85;1.02;;;;;;;26.55;25.96;97094.38;5062024;28;20087;-23
2021/04/03 06:59:05;;;;;;;;;;;;;;;26.56;25.85;97088.22;5065995;28;20020;-26
2021/04/03 07:01:49;;;;;;;8.85;1.30;;;;;;;26.57;26.00;97091.66;5063745;27;19920;-25
2021/04/03 07:04:21;;;;;;;4.00;1.05;;;;;;;26.57;26.00;97103.03;5065349;28;21635;-24
2021/04/03 07:06:48;;;;;;;4.53;1.30;;;;;;;26.57;26.03;97103.03;5065255;28;20055;-28
2021/04/03 07:09:13;;;;;;;5.20;1.20;;;;;;;26.58;25.94;97099.47;5065520;28;20038;-26
2021/04/03 07:11:39;;;;;;;8.07;1.58;;;;;;;26.60;25.95;97110.78;5063956;28;20110;-25
2021/04/03 07:14:05;;;;;;;5.68;1.50;;;;;;;26.59;25.96;97103.81;5063151;28;20032;-24
2021/04/03 07:16:30;;;;;;;4.70;1.40;;;;;;;26.61;25.94;97099.34;5062744;28;20351;-25
2021/04/03 07:18:56;;;;;;;6.55;1.40;;;;;;;26.63;26.01;97111.53;5045301;28;20032;-26
2021/04/03 07:21:22;;;;;;;6.43;1.70;;;;;;;26.63;25.95;97111.53;5065794;28;20032;-25
2021/04/03 07:23:47;;;;;;;5.15;1.50;;;;;;;26.62;25.96;97105.44;5063729;28;20039;-25
2021/04/03 07:26:14;;;;;;;2.38;1.40;;;;;;;26.63;26.11;97104.50;5049095;28;20031;-26
2021/04/03 07:28:40;;;;;;;2.35;1.52;;;;;;;26.64;26.00;97114.09;5049089;28;20147;-26
2021/04/03 07:31:06;;;;;;;3.50;1.60;;;;;;;26.67;26.04;97118.34;5062120;28;20133;-25
2021/04/03 07:33:31;;;;;;;3.47;1.30;;;;;;;26.67;25.93;97113.09;5065861;28;20549;-29
2021/04/03 07:35:58;;;;;;;2.38;1.20;;;;;;;26.67;25.93;97121.81;5064222;28;20024;-31
2021/04/03 07:38:30;;;;;;;4.85;1.70;;;;;;;26.68;26.12;97120.03;5066746;28;20032;-27
2021/04/03 07:40:58;;;;;;;3.90;1.58;;;;;;;26.69;26.00;97121.75;5063645;28;20024;-26
2021/04/03 07:43:29;;;;;;;2.92;1.30;;;;;;;26.67;25.91;97123.59;5064678;28;20020;-26
2021/04/03 07:45:57;;;;;;;3.67;1.30;;;;;;;26.71;26.08;97130.41;5064843;27;20559;-28
2021/04/03 07:48:45;;;;;;;6.70;1.40;;;;;;;26.72;25.96;97132.09;5053377;28;20024;-23
2021/04/03 07:51:11;;;;;;;2.85;1.05;;;;;;;26.74;26.06;97138.13;5064626;28;20028;-29
2021/04/03 07:53:38;;;;;;;4.22;1.20;;;;;;;26.74;25.99;97136.34;5062448;28;20122;-26
2021/04/03 07:56:04;;;;;;;2.55;1.35;;;;;;;26.74;26.10;97135.50;5065563;28;20027;-30
2021/04/03 07:58:56;;;;;;;2.35;1.27;;;;;;;26.75;25.98;97134.56;5061843;28;20048;-28
2021/04/03 08:01:23;;;;;;;3.03;1.40;;;;;;;26.78;26.21;97136.19;5060599;28;20052;-26
2021/04/03 08:04:00;;;;;;;2.22;1.33;;;;;;;26.78;26.22;97141.44;5064179;28;20683;-26
2021/04/03 08:06:30;;;;;;;2.58;1.30;;;;;;;26.78;26.13;97144.94;5064730;28;20020;-30
2021/04/03 08:08:55;;;;;;;4.25;1.17;;;;;;;26.78;26.13;97141.44;5065656;28;20027;-25
2021/04/03 08:11:20;;;;;;;3.90;1.52;;;;;;;26.79;26.13;97158.91;5047474;28;20407;-30
2021/04/03 08:13:48;;;;;;;3.00;1.35;;;;;;;26.80;26.29;97161.47;5045933;28;20051;-28
2021/04/03 08:16:15;;;;;;;5.15;1.23;;;;;;;26.81;26.23;97157.06;5063990;28;20680;-26
2021/04/03 08:18:59;;;;;;;3.47;1.33;;;;;;;26.81;26.33;97167.59;5065461;28;20580;-29
2021/04/03 08:21:26;;;;;;;4.13;1.48;;;;;;;26.81;26.21;97157.91;5067613;28;20105;-31
2021/04/03 08:23:57;;;;;;;6.57;1.38;;;;;;;26.81;26.18;97164.97;5067102;28;20016;-26
2021/04/03 08:26:24;;;;;;;;;;;;;;;26.82;26.15;97170.16;5066668;28;20218;-25
2021/04/03 08:28:50;;;;;;;2.70;1.30;;;;;;;26.82;26.13;97172.78;5066710;28;19922;-25
2021/04/03 08:31:19;;;;;;;22.55;2.65;;;;;;;26.71;24.30;97160.19;5063782;28;20029;-28
2021/04/03 08:33:45;;;;;;;11.13;1.90;;;;;;;26.77;24.99;97176.56;5065016;28;20381;-29
2021/04/03 08:36:14;;;;;;;7.50;1.45;;;;;;;26.74;25.27;97178.41;5066629;28;20100;-25
2021/04/03 08:38:41;;;;;;;7.05;1.52;;;;;;;26.74;25.41;97182.81;5070413;28;20042;-28
2021/04/03 08:41:06;;;;;;;6.93;1.60;;;;;;;26.74;25.67;97180.19;5071229;28;20038;-25
2021/04/03 08:43:33;;;;;;;3.90;1.67;;;;;;;26.75;25.63;97179.25;5074982;28;20099;-31
2021/04/03 08:46:03;;;;;;;5.03;2.05;;;;;;;26.70;23.67;97178.66;5067743;28;20046;-27
2021/04/03 08:48:33;;;;;;;6.90;2.25;;;;;;;26.53;21.60;97174.22;5065142;28;20395;-28
2021/04/03 08:50:58;;;;;;;5.90;2.20;;;;;;;26.29;21.48;97188.53;5065552;28;20376;-26
2021/04/03 08:53:24;;;;;;;12.43;2.28;;;;;;;26.13;21.49;97184.91;5066501;28;20085;-31
2021/04/03 08:55:49;;;;;;;5.15;1.73;;;;;;;26.01;21.61;97184.56;5067980;28;20040;-27
2021/04/03 08:58:14;;;;;;;5.97;1.55;;;;;;;25.95;22.01;97190.13;5068199;28;20032;-25
2021/04/03 09:00:40;;;;;;;6.70;1.58;;;;;;;25.92;22.09;97188.50;5068112;27;20036;-27
2021/04/03 09:03:05;;;;;;;5.82;1.83;;;;;;;25.91;22.35;97191.19;5066255;28;20423;-27
2021/04/03 09:05:31;;;;;;;6.38;1.73;;;;;;;25.91;22.47;97193.81;5066180;28;20376;-27
2021/04/03 09:07:56;;;;;;;7.20;1.50;;;;;;;25.93;22.73;97199.84;5068376;28;20089;-27
2021/04/03 09:10:23;;;;;;;4.85;1.60;;;;;;;25.95;22.85;97200.63;5065924;28;20020;-29
2021/04/03 09:12:49;;;;;;;8.00;1.75;;;;;;;25.97;22.83;97204.00;5067833;28;20020;-28
2021/04/03 09:15:26;;;;;;;6.28;1.73;;;;;;;26.01;22.86;97205.56;5065796;27;20039;-26
2021/04/03 09:17:53;;;;;;;4.05;1.33;;;;;;;26.03;22.91;97198.47;5065866;28;20031;-30
2021/04/03 09:20:20;;;;;;;4.07;1.58;;;;;;;26.07;23.10;97200.03;5066075;28;20102;-28
2021/04/03 09:22:46;;;;;;;5.30;1.60;;;;;;;26.11;23.16;97206.00;5069822;28;20107;-29
2021/04/03 09:25:16;;;;;;;2.70;1.50;;;;;;;26.15;23.11;97201.44;5064380;28;20530;-29
2021/04/03 09:27:42;;;;;;;7.70;1.60;;;;;;;26.18;23.19;97206.53;5060080;28;20028;-25
2021/04/03 09:30:11;;;;;;;7.60;1.52;;;;;;;26.22;23.15;97208.09;5051678;27;20525;-26
2021/04/03 09:32:43;;;;;;;4.07;1.38;;;;;;;26.26;23.29;97211.44;5064106;28;20025;-25
2021/04/03 09:35:10;;;;;;;10.57;1.77;;;;;;;26.28;23.50;97207.00;5065776;28;20031;-23
2021/04/03 09:37:35;;;;;;;9.20;1.83;;;;;;;26.31;23.57;97210.31;5070948;28;20024;-27
2021/04/03 09:40:01;;;;;;;17.65;3.15;;;;;;;26.34;23.63;97212.78;5072726;28;20521;-28
2021/04/03 09:42:28;;;;;;;16.45;3.47;;;;;;;26.35;23.52;97211.88;5071930;28;20092;-31
2021/04/03 09:44:54;;;;;;;14.05;3.60;;;;;;;26.40;23.79;97210.78;5072579;28;20057;-26
2021/04/03 09:47:20;;;;;;;24.30;4.03;;;;;;;26.41;23.71;97204.59;5071759;27;20028;-29
2021/04/03 09:49:46;;;;;;;20.95;3.88;;;;;;;26.43;23.72;97206.22;5069824;28;20131;-28
2021/04/03 09:52:13;;;;;;;23.70;3.80;;;;;;;26.45;23.97;97209.66;5070534;28;20480;-24
2021/04/03 09:54:39;;;;;;;18.00;4.00;;;;;;;26.47;23.99;97206.94;5072746;28;20893;-31
2021/04/03 09:57:04;;;;;;;13.77;3.45;;;;;;;26.49;24.20;97210.34;5072247;28;20036;-27
2021/04/03 09:59:30;;;;;;;14.00;3.35;;;;;;;26.51;24.01;97211.13;5072546;28;20055;-25
2021/04/03 10:01:56;;;;;;;14.13;3.95;;;;;;;26.53;24.24;97211.03;5067978;28;20048;-25
2021/04/03 10:04:22;;;;;;;11.27;3.45;;;;;;;26.56;24.13;97200.38;5068455;28;20032;-26
2021/04/03 10:06:47;;;;;;;24.20;2.90;;;;;;;26.56;23.97;97200.38;5048019;28;20057;-26
2021/04/03 10:09:13;;;;;;;10.98;2.88;;;;;;;26.56;23.86;97209.13;5065051;28;20035;-26
2021/04/03 10:11:38;;;;;;;12.15;3.35;;;;;;;26.57;23.91;97212.56;5067592;28;20034;-27
2021/04/03 10:14:04;;;;;;;11.00;3.00;;;;;;;26.58;23.98;97201.16;5065021;28;20488;-25
2021/04/03 10:16:29;;;;;;;10.30;2.70;;;;;;;26.60;24.04;97200.16;5063563;28;20040;-29
2021/04/03 10:18:54;;;;;;;7.88;2.85;;;;;;;26.60;23.92;97207.19;5044814;28;20028;-26
2021/04/03 10:21:20;;;;;;;12.57;2.92;;;;;;;26.57;24.20;97195.03;5065309;28;20101;-26
2021/04/03 10:23:46;;;;;;;32.50;3.55;;;;;;;26.63;24.13;97207.03;5065944;28;20036;-27
2021/04/03 10:26:11;;;;;;;12.75;2.97;;;;;;;26.64;24.31;97207.84;5084002;28;20528;-27
2021/04/03 10:28:37;;;;;;;8.98;2.50;;;;;;;26.66;24.30;97206.03;5069215;28;20039;-25
2021/04/03 10:31:02;;;;;;;21.08;3.08;;;;;;;26.69;24.55;97205.88;5067372;27;20040;-30
2021/04/03 10:33:28;;;;;;;15.75;2.60;;;;;;;26.70;24.62;97207.56;5064945;28;20055;-27
2021/04/03 10:35:53;;;;;;;13.40;2.75;;;;;;;26.71;24.61;97204.88;5065890;28;20036;-25
2021/04/03 10:38:18;;;;;;;16.15;2.70;;;;;;;26.72;24.55;97205.69;5066384;28;22680;-27
2021/04/03 10:40:44;;;;;;;19.23;3.03;;;;;;;26.73;24.71;97203.00;5069494;28;20044;-25
2021/04/03 10:43:09;;;;;;;9.10;2.40;;;;;;;26.75;24.80;97210.81;5069114;28;20035;-29
2021/04/03 10:45:35;;;;;;;14.98;2.25;;;;;;;26.77;24.99;97211.56;5068400;28;20036;-27
2021/04/03 10:48:00;;;;;;;21.30;3.08;;;;;;;26.80;25.35;97208.78;5069114;28;20041;-25
2021/04/03 10:50:25;;;;;;;15.43;2.33;;;;;;;26.87;26.34;97212.81;5068926;28;20463;-27
2021/04/03 10:52:51;;;;;;;16.80;3.08;;;;;;;26.92;25.44;97211.75;5071356;28;20119;-27
2021/04/03 10:55:16;;;;;;;25.42;2.47;;;;;;;26.93;25.12;97211.63;5070458;28;20039;-23
2021/04/03 10:57:42;;;;;;;16.23;2.63;;;;;;;26.94;24.92;97210.75;5064554;28;20101;-25
2021/04/03 11:00:08;;;;;;;8.93;2.30;;;;;;;26.95;24.92;97216.84;5066077;28;20546;-25
2021/04/03 11:02:33;;;;;;;11.35;2.38;;;;;;;26.95;25.09;97211.59;5070276;28;20754;-22
2021/04/03 11:04:59;;;;;;;10.15;2.30;;;;;;;26.94;25.03;97213.41;5064433;28;20024;-22
2021/04/03 11:07:24;;;;;;;8.02;2.20;;;;;;;26.93;25.22;97213.44;5063393;28;20052;-26
2021/04/03 11:09:49;;;;;;;11.43;2.15;;;;;;;26.92;25.23;97209.13;5062889;28;20032;-23
2021/04/03 11:12:15;;;;;;;7.80;1.90;;;;;;;26.90;24.95;97197.81;5064198;28;20098;-27
2021/04/03 11:14:41;;;;;;;5.60;2.15;;;;;;;26.87;24.32;97204.94;5063007;28;20426;-26
2021/04/03 11:17:07;;;;;;;11.60;2.22;;;;;;;26.84;23.76;97198.97;5064670;28;20525;-25
2021/04/03 11:19:33;;;;;;;5.15;2.30;;;;;;;26.77;22.65;97203.69;5063938;28;20332;-22
2021/04/03 11:21:58;;;;;;;11.18;2.22;;;;;;;26.73;23.02;97212.66;5062546;28;20091;-24
2021/04/03 11:24:24;;;;;;;12.43;2.00;;;;;;;26.68;22.85;97198.91;5070715;28;20036;-25
2021/04/03 11:26:50;;;;;;;9.60;2.40;;;;;;;26.62;22.85;97205.34;5067354;28;20040;-25
2021/04/03 11:29:16;;;;;;;5.20;1.83;;;;;;;26.58;22.80;97204.63;5062067;28;20130;-25
2021/04/03 11:31:41;;;;;;;7.05;2.15;;;;;;;26.56;22.87;97209.13;5062890;28;20052;-22